sensor_id;sensor_type;location;lat;lon;timestamp;pressure;altitude;pressure_sealevel;temperature;humidity
23589;BME280;11972;48.078;11.876;2024-01-25T00:03:17;96450.50;;;7.71;100.00
23589;BME280;11972;48.078;11.876;2024-01-25T00:07:17;96457.41;;;7.72;100.00
23589;BME280;11972;48.078;11.876;2024-01-25T00:11:17;96439.16;;;7.70;100.00
23589;BME280;11972;48.078;11.876;2024-01-25T00:15:18;96445.22;;;7.71;100.00
23589;BME280;11972;48.078;11.876;2024-01-25T00:19:18;96435.97;;;7.67;100.00
23589;BME280;11972;48.078;11.876;2024-01-25T00:23:18;96457.28;;;7.64;100.00
23589;BME280;11972;48.078;11.876;2024-01-25T00:27:19;96459.09;;;7.63;100.00
23589;BME280;11972;48.078;11.876;2024-01-25T00:31:19;96459.09;;;7.63;100.00
23589;BME280;11972;48.078;11.876;2024-01-25T00:35:19;96465.44;;;7.61;100.00
23589;BME280;11972;48.078;11.876;2024-01-25T00:39:20;96467.66;;;7.56;100.00
23589;BME280;11972;48.078;11.876;2024-01-25T00:43:21;96472.53;;;7.51;100.00
23589;BME280;11972;48.078;11.876;2024-01-25T00:47:22;96466.88;;;7.45;100.00
23589;BME280;11972;48.078;11.876;2024-01-25T00:51:22;96487.06;;;7.45;100.00
23589;BME280;11972;48.078;11.876;2024-01-25T00:55:23;96482.63;;;7.45;100.00
23589;BME280;11972;48.078;11.876;2024-01-25T00:59:24;96491.47;;;7.44;100.00
23589;BME280;11972;48.078;11.876;2024-01-25T01:03:24;96493.16;;;7.45;100.00
23589;BME280;11972;48.078;11.876;2024-01-25T01:07:25;96486.50;;;7.51;100.00
23589;BME280;11972;48.078;11.876;2024-01-25T01:11:26;96497.84;;;7.52;100.00
23589;BME280;11972;48.078;11.876;2024-01-25T01:15:26;96493.56;;;7.51;100.00
23589;BME280;11972;48.078;11.876;2024-01-25T01:19:27;96503.66;;;7.55;100.00
23589;BME280;11972;48.078;11.876;2024-01-25T01:23:27;96503.38;;;7.58;100.00
23589;BME280;11972;48.078;11.876;2024-01-25T01:27:27;96494.38;;;7.61;100.00
23589;BME280;11972;48.078;11.876;2024-01-25T01:31:27;96496.88;;;7.62;100.00
23589;BME280;11972;48.078;11.876;2024-01-25T01:35:28;96494.91;;;7.64;100.00
23589;BME280;11972;48.078;11.876;2024-01-25T01:39:28;96491.88;;;7.69;100.00
23589;BME280;11972;48.078;11.876;2024-01-25T01:43:28;96481.22;;;7.70;100.00
23589;BME280;11972;48.078;11.876;2024-01-25T01:47:29;96477.63;;;7.71;100.00
23589;BME280;11972;48.078;11.876;2024-01-25T01:51:31;96474.00;;;7.72;100.00
23589;BME280;11972;48.078;11.876;2024-01-25T01:55:31;96489.34;;;7.77;100.00
23589;BME280;11972;48.078;11.876;2024-01-25T01:59:32;96473.59;;;7.77;100.00
23589;BME280;11972;48.078;11.876;2024-01-25T02:03:33;96481.47;;;7.77;100.00
23589;BME280;11972;48.078;11.876;2024-01-25T02:07:33;96464.03;;;7.76;100.00
23589;BME280;11972;48.078;11.876;2024-01-25T02:11:34;96460.19;;;7.70;100.00
23589;BME280;11972;48.078;11.876;2024-01-25T02:15:34;96460.47;;;7.58;100.00
23589;BME280;11972;48.078;11.876;2024-01-25T02:19:35;96456.75;;;7.51;100.00
23589;BME280;11972;48.078;11.876;2024-01-25T02:23:35;96459.66;;;7.47;100.00
23589;BME280;11972;48.078;11.876;2024-01-25T02:27:35;96463.00;;;7.50;100.00
23589;BME280;11972;48.078;11.876;2024-01-25T02:31:38;96461.31;;;7.49;100.00
23589;BME280;11972;48.078;11.876;2024-01-25T02:35:39;96464.34;;;7.44;100.00
23589;BME280;11972;48.078;11.876;2024-01-25T02:39:39;96470.59;;;7.43;100.00
23589;BME280;11972;48.078;11.876;2024-01-25T02:43:39;96456.63;;;7.42;100.00
23589;BME280;11972;48.078;11.876;2024-01-25T02:47:40;96456.34;;;7.45;100.00
23589;BME280;11972;48.078;11.876;2024-01-25T02:51:40;96468.50;;;7.46;100.00
23589;BME280;11972;48.078;11.876;2024-01-25T02:55:40;96457.44;;;7.53;100.00
23589;BME280;11972;48.078;11.876;2024-01-25T02:59:40;96453.28;;;7.50;100.00
23589;BME280;11972;48.078;11.876;2024-01-25T03:03:41;96450.53;;;7.42;100.00
23589;BME280;11972;48.078;11.876;2024-01-25T03:07:41;96455.25;;;7.38;100.00
23589;BME280;11972;48.078;11.876;2024-01-25T03:11:41;96449.72;;;7.41;100.00
23589;BME280;11972;48.078;11.876;2024-01-25T03:15:43;96444.16;;;7.44;100.00
23589;BME280;11972;48.078;11.876;2024-01-25T03:19:44;96451.50;;;7.51;100.00
23589;BME280;11972;48.078;11.876;2024-01-25T03:23:44;96444.72;;;7.58;100.00
23589;BME280;11972;48.078;11.876;2024-01-25T03:27:44;96426.84;;;7.61;100.00
23589;BME280;11972;48.078;11.876;2024-01-25T03:31:45;96437.50;;;7.60;100.00
23589;BME280;11972;48.078;11.876;2024-01-25T03:35:45;96446.91;;;7.62;100.00
23589;BME280;11972;48.078;11.876;2024-01-25T03:39:45;96432.13;;;7.61;100.00
23589;BME280;11972;48.078;11.876;2024-01-25T03:43:46;96426.44;;;7.66;100.00
23589;BME280;11972;48.078;11.876;2024-01-25T03:47:46;96450.75;;;7.68;100.00
23589;BME280;11972;48.078;11.876;2024-01-25T03:51:46;96453.28;;;7.69;100.00
23589;BME280;11972;48.078;11.876;2024-01-25T03:55:47;96451.06;;;7.55;100.00
23589;BME280;11972;48.078;11.876;2024-01-25T03:59:49;96458.28;;;7.43;100.00
23589;BME280;11972;48.078;11.876;2024-01-25T04:03:49;96467.13;;;7.42;100.00
23589;BME280;11972;48.078;11.876;2024-01-25T04:07:49;96473.50;;;7.40;100.00
23589;BME280;11972;48.078;11.876;2024-01-25T04:11:50;96472.13;;;7.45;100.00
23589;BME280;11972;48.078;11.876;2024-01-25T04:15:50;96472.94;;;7.56;100.00
23589;BME280;11972;48.078;11.876;2024-01-25T04:19:51;96491.72;;;7.61;100.00
23589;BME280;11972;48.078;11.876;2024-01-25T04:23:51;96490.47;;;7.65;100.00
23589;BME280;11972;48.078;11.876;2024-01-25T04:27:51;96483.31;;;7.67;100.00
23589;BME280;11972;48.078;11.876;2024-01-25T04:31:52;96496.44;;;7.67;100.00
23589;BME280;11972;48.078;11.876;2024-01-25T04:35:52;96501.16;;;7.63;100.00
23589;BME280;11972;48.078;11.876;2024-01-25T04:39:52;96512.78;;;7.61;100.00
23589;BME280;11972;48.078;11.876;2024-01-25T04:43:53;96517.19;;;7.60;100.00
23589;BME280;11972;48.078;11.876;2024-01-25T04:47:53;96515.41;;;7.61;100.00
23589;BME280;11972;48.078;11.876;2024-01-25T04:51:53;96516.38;;;7.60;100.00
23589;BME280;11972;48.078;11.876;2024-01-25T04:55:54;96513.06;;;7.58;100.00
23589;BME280;11972;48.078;11.876;2024-01-25T04:59:55;96517.50;;;7.57;100.00
23589;BME280;11972;48.078;11.876;2024-01-25T05:03:55;96530.66;;;7.57;100.00
23589;BME280;11972;48.078;11.876;2024-01-25T05:07:55;96528.84;;;7.58;100.00
23589;BME280;11972;48.078;11.876;2024-01-25T05:11:55;96523.84;;;7.55;100.00
23589;BME280;11972;48.078;11.876;2024-01-25T05:15:58;96539.34;;;7.38;100.00
23589;BME280;11972;48.078;11.876;2024-01-25T05:19:58;96525.91;;;7.22;100.00
23589;BME280;11972;48.078;11.876;2024-01-25T05:23:59;96545.41;;;7.10;100.00
23589;BME280;11972;48.078;11.876;2024-01-25T05:28:00;96565.03;;;7.15;100.00
23589;BME280;11972;48.078;11.876;2024-01-25T05:32:00;96534.22;;;7.27;100.00
23589;BME280;11972;48.078;11.876;2024-01-25T05:36:01;96556.94;;;7.38;100.00
23589;BME280;11972;48.078;11.876;2024-01-25T05:40:01;96543.38;;;7.42;100.00
23589;BME280;11972;48.078;11.876;2024-01-25T05:44:02;96544.19;;;7.43;100.00
23589;BME280;11972;48.078;11.876;2024-01-25T05:48:02;96540.47;;;7.45;100.00
23589;BME280;11972;48.078;11.876;2024-01-25T05:52:03;96555.28;;;7.46;100.00
23589;BME280;11972;48.078;11.876;2024-01-25T05:56:03;96547.91;;;7.40;100.00
23589;BME280;11972;48.078;11.876;2024-01-25T06:00:05;96564.50;;;7.31;100.00
23589;BME280;11972;48.078;11.876;2024-01-25T06:04:05;96564.78;;;7.28;100.00
23589;BME280;11972;48.078;11.876;2024-01-25T06:08:06;96571.16;;;7.35;100.00
23589;BME280;11972;48.078;11.876;2024-01-25T06:12:06;96577.81;;;7.39;100.00
23589;BME280;11972;48.078;11.876;2024-01-25T06:16:07;96579.34;;;7.42;100.00
23589;BME280;11972;48.078;11.876;2024-01-25T06:20:07;96576.31;;;7.46;100.00
23589;BME280;11972;48.078;11.876;2024-01-25T06:24:09;96581.56;;;7.46;100.00
23589;BME280;11972;48.078;11.876;2024-01-25T06:28:09;96597.31;;;7.46;100.00
23589;BME280;11972;48.078;11.876;2024-01-25T06:32:10;96598.56;;;7.42;100.00
23589;BME280;11972;48.078;11.876;2024-01-25T06:36:10;96607.28;;;7.43;100.00
23589;BME280;11972;48.078;11.876;2024-01-25T06:40:11;96610.72;;;7.34;100.00
23589;BME280;11972;48.078;11.876;2024-01-25T06:44:11;96617.34;;;7.18;100.00
23589;BME280;11972;48.078;11.876;2024-01-25T06:48:12;96626.16;;;7.08;100.00
23589;BME280;11972;48.078;11.876;2024-01-25T06:52:12;96633.91;;;7.09;100.00
23589;BME280;11972;48.078;11.876;2024-01-25T06:56:12;96636.13;;;7.14;100.00
23589;BME280;11972;48.078;11.876;2024-01-25T07:00:13;96651.75;;;7.15;100.00
23589;BME280;11972;48.078;11.876;2024-01-25T07:04:15;96654.59;;;7.03;100.00
23589;BME280;11972;48.078;11.876;2024-01-25T07:08:16;96665.06;;;6.83;100.00
23589;BME280;11972;48.078;11.876;2024-01-25T07:12:16;96664.69;;;6.67;100.00
23589;BME280;11972;48.078;11.876;2024-01-25T07:16:16;96669.88;;;6.57;100.00
23589;BME280;11972;48.078;11.876;2024-01-25T07:20:17;96681.97;;;6.49;100.00
23589;BME280;11972;48.078;11.876;2024-01-25T07:24:17;96680.50;;;6.56;100.00
23589;BME280;11972;48.078;11.876;2024-01-25T07:28:20;96680.63;;;6.75;100.00
23589;BME280;11972;48.078;11.876;2024-01-25T07:32:21;96687.19;;;6.90;100.00
23589;BME280;11972;48.078;11.876;2024-01-25T07:36:24;96703.84;;;7.01;100.00
23589;BME280;11972;48.078;11.876;2024-01-25T07:40:24;96703.13;;;6.99;100.00
23589;BME280;11972;48.078;11.876;2024-01-25T07:44:24;96708.31;;;7.10;100.00
23589;BME280;11972;48.078;11.876;2024-01-25T07:48:25;96705.41;;;7.13;100.00
23589;BME280;11972;48.078;11.876;2024-01-25T07:52:25;96717.31;;;7.17;100.00
23589;BME280;11972;48.078;11.876;2024-01-25T07:56:25;96701.16;;;7.21;100.00
23589;BME280;11972;48.078;11.876;2024-01-25T08:00:26;96706.38;;;7.12;100.00
23589;BME280;11972;48.078;11.876;2024-01-25T08:04:26;96710.13;;;7.19;100.00
23589;BME280;11972;48.078;11.876;2024-01-25T08:08:26;96702.47;;;7.37;100.00
23589;BME280;11972;48.078;11.876;2024-01-25T08:12:26;96701.50;;;7.47;100.00
23589;BME280;11972;48.078;11.876;2024-01-25T08:16:27;96711.78;;;7.51;100.00
23589;BME280;11972;48.078;11.876;2024-01-25T08:20:27;96701.25;;;7.51;100.00
23589;BME280;11972;48.078;11.876;2024-01-25T08:24:27;96691.81;;;7.48;100.00
23589;BME280;11972;48.078;11.876;2024-01-25T08:28:28;96682.63;;;7.23;100.00
23589;BME280;11972;48.078;11.876;2024-01-25T08:32:28;96672.81;;;6.94;100.00
23589;BME280;11972;48.078;11.876;2024-01-25T08:36:28;96675.41;;;6.85;100.00
23589;BME280;11972;48.078;11.876;2024-01-25T08:40:29;96708.34;;;6.89;100.00
23589;BME280;11972;48.078;11.876;2024-01-25T08:44:29;96688.91;;;7.01;100.00
23589;BME280;11972;48.078;11.876;2024-01-25T08:48:30;96717.50;;;7.25;100.00
23589;BME280;11972;48.078;11.876;2024-01-25T08:52:30;96726.47;;;7.72;100.00
23589;BME280;11972;48.078;11.876;2024-01-25T08:56:31;96723.25;;;8.19;100.00
23589;BME280;11972;48.078;11.876;2024-01-25T09:00:31;96698.00;;;8.26;100.00
23589;BME280;11972;48.078;11.876;2024-01-25T09:04:32;96693.84;;;8.14;100.00
23589;BME280;11972;48.078;11.876;2024-01-25T09:08:32;96695.22;;;7.79;100.00
23589;BME280;11972;48.078;11.876;2024-01-25T09:12:34;96709.47;;;7.67;100.00
23589;BME280;11972;48.078;11.876;2024-01-25T09:16:35;96733.03;;;7.78;100.00
23589;BME280;11972;48.078;11.876;2024-01-25T09:20:37;96738.59;;;7.94;100.00
23589;BME280;11972;48.078;11.876;2024-01-25T09:24:37;96730.41;;;7.97;100.00
23589;BME280;11972;48.078;11.876;2024-01-25T09:28:40;96761.03;;;7.99;100.00
23589;BME280;11972;48.078;11.876;2024-01-25T09:32:40;96727.25;;;8.04;100.00
23589;BME280;11972;48.078;11.876;2024-01-25T09:36:40;96727.13;;;8.15;100.00
23589;BME280;11972;48.078;11.876;2024-01-25T09:40:41;96731.81;;;8.11;100.00
23589;BME280;11972;48.078;11.876;2024-01-25T09:44:42;96735.44;;;8.20;100.00
23589;BME280;11972;48.078;11.876;2024-01-25T09:48:43;96737.34;;;8.18;100.00
23589;BME280;11972;48.078;11.876;2024-01-25T09:52:51;96730.72;;;8.24;100.00
23589;BME280;11972;48.078;11.876;2024-01-25T09:56:53;96738.34;;;8.17;100.00
23589;BME280;11972;48.078;11.876;2024-01-25T10:00:54;96728.50;;;8.19;100.00
23589;BME280;11972;48.078;11.876;2024-01-25T10:04:55;96720.44;;;8.30;100.00
23589;BME280;11972;48.078;11.876;2024-01-25T10:08:55;96726.88;;;8.37;100.00
23589;BME280;11972;48.078;11.876;2024-01-25T10:12:56;96732.38;;;8.25;100.00
23589;BME280;11972;48.078;11.876;2024-01-25T10:16:57;96733.22;;;8.15;100.00
23589;BME280;11972;48.078;11.876;2024-01-25T10:20:58;96726.97;;;8.26;100.00
23589;BME280;11972;48.078;11.876;2024-01-25T10:25:00;96716.47;;;8.65;100.00
23589;BME280;11972;48.078;11.876;2024-01-25T10:29:01;96719.31;;;8.91;100.00
23589;BME280;11972;48.078;11.876;2024-01-25T10:33:03;96693.97;;;9.17;100.00
23589;BME280;11972;48.078;11.876;2024-01-25T10:37:08;96681.25;;;9.68;100.00
23589;BME280;11972;48.078;11.876;2024-01-25T10:41:08;96676.59;;;9.98;100.00
23589;BME280;11972;48.078;11.876;2024-01-25T10:45:09;96680.66;;;10.10;100.00
23589;BME280;11972;48.078;11.876;2024-01-25T10:49:09;96678.94;;;10.18;100.00
23589;BME280;11972;48.078;11.876;2024-01-25T10:53:10;96644.44;;;10.20;100.00
23589;BME280;11972;48.078;11.876;2024-01-25T10:57:10;96648.22;;;10.00;100.00
23589;BME280;11972;48.078;11.876;2024-01-25T11:01:11;96661.69;;;9.61;100.00
23589;BME280;11972;48.078;11.876;2024-01-25T11:05:16;96640.63;;;9.06;100.00
23589;BME280;11972;48.078;11.876;2024-01-25T11:09:18;96635.97;;;8.80;100.00
23589;BME280;11972;48.078;11.876;2024-01-25T11:13:28;96640.06;;;8.65;100.00
23589;BME280;11972;48.078;11.876;2024-01-25T11:17:31;96629.41;;;8.57;100.00
23589;BME280;11972;48.078;11.876;2024-01-25T11:21:50;96625.09;;;8.56;100.00
23589;BME280;11972;48.078;11.876;2024-01-25T11:25:50;96629.84;;;8.52;100.00
23589;BME280;11972;48.078;11.876;2024-01-25T11:29:54;96620.84;;;8.35;100.00
23589;BME280;11972;48.078;11.876;2024-01-25T11:34:00;96628.47;;;8.38;100.00
23589;BME280;11972;48.078;11.876;2024-01-25T11:38:00;96648.00;;;8.45;100.00
23589;BME280;11972;48.078;11.876;2024-01-25T11:42:01;96638.94;;;8.67;100.00
23589;BME280;11972;48.078;11.876;2024-01-25T11:46:01;96633.81;;;9.03;100.00
23589;BME280;11972;48.078;11.876;2024-01-25T11:50:02;96639.44;;;9.45;100.00
23589;BME280;11972;48.078;11.876;2024-01-25T11:54:03;96619.34;;;9.62;100.00
23589;BME280;11972;48.078;11.876;2024-01-25T11:58:07;96624.03;;;9.86;100.00
23589;BME280;11972;48.078;11.876;2024-01-25T12:02:07;96600.56;;;9.83;100.00
23589;BME280;11972;48.078;11.876;2024-01-25T12:06:09;96613.63;;;9.67;100.00
23589;BME280;11972;48.078;11.876;2024-01-25T12:10:16;96600.50;;;9.57;100.00
23589;BME280;11972;48.078;11.876;2024-01-25T12:14:17;96604.13;;;9.56;100.00
23589;BME280;11972;48.078;11.876;2024-01-25T12:18:17;96606.31;;;9.61;100.00
23589;BME280;11972;48.078;11.876;2024-01-25T12:22:21;96598.31;;;10.06;100.00
23589;BME280;11972;48.078;11.876;2024-01-25T12:26:22;96589.53;;;10.41;100.00
23589;BME280;11972;48.078;11.876;2024-01-25T12:30:22;96572.34;;;10.37;100.00
23589;BME280;11972;48.078;11.876;2024-01-25T12:34:22;96573.00;;;10.22;100.00
23589;BME280;11972;48.078;11.876;2024-01-25T12:38:23;96573.25;;;10.28;100.00
23589;BME280;11972;48.078;11.876;2024-01-25T12:42:24;96568.06;;;10.44;100.00
23589;BME280;11972;48.078;11.876;2024-01-25T12:46:24;96561.44;;;10.40;100.00
23589;BME280;11972;48.078;11.876;2024-01-25T12:50:25;96558.00;;;10.22;100.00
23589;BME280;11972;48.078;11.876;2024-01-25T12:54:26;96575.38;;;10.07;100.00
23589;BME280;11972;48.078;11.876;2024-01-25T12:58:26;96551.66;;;9.89;100.00
23589;BME280;11972;48.078;11.876;2024-01-25T13:02:27;96560.97;;;10.01;100.00
23589;BME280;11972;48.078;11.876;2024-01-25T13:06:27;96541.34;;;10.04;100.00
23589;BME280;11972;48.078;11.876;2024-01-25T13:10:28;96544.56;;;10.33;100.00
23589;BME280;11972;48.078;11.876;2024-01-25T13:14:28;96548.28;;;10.49;100.00
23589;BME280;11972;48.078;11.876;2024-01-25T13:18:29;96532.13;;;10.52;100.00
23589;BME280;11972;48.078;11.876;2024-01-25T13:22:29;96522.59;;;10.59;100.00
23589;BME280;11972;48.078;11.876;2024-01-25T13:26:30;96526.19;;;10.50;100.00
23589;BME280;11972;48.078;11.876;2024-01-25T13:30:30;96509.28;;;10.42;100.00
23589;BME280;11972;48.078;11.876;2024-01-25T13:34:30;96512.28;;;10.22;100.00
23589;BME280;11972;48.078;11.876;2024-01-25T13:38:31;96510.38;;;10.06;100.00
23589;BME280;11972;48.078;11.876;2024-01-25T13:42:31;96509.94;;;9.92;100.00
23589;BME280;11972;48.078;11.876;2024-01-25T13:46:31;96507.53;;;9.81;100.00
23589;BME280;11972;48.078;11.876;2024-01-25T13:50:32;96512.41;;;9.68;100.00
23589;BME280;11972;48.078;11.876;2024-01-25T13:54:32;96514.97;;;9.60;100.00
23589;BME280;11972;48.078;11.876;2024-01-25T13:58:32;96512.47;;;9.58;100.00
23589;BME280;11972;48.078;11.876;2024-01-25T14:02:33;96497.97;;;9.62;100.00
23589;BME280;11972;48.078;11.876;2024-01-25T14:06:33;96492.50;;;9.56;100.00
23589;BME280;11972;48.078;11.876;2024-01-25T14:10:34;96494.00;;;9.58;100.00
23589;BME280;11972;48.078;11.876;2024-01-25T14:14:36;96492.22;;;9.59;100.00
23589;BME280;11972;48.078;11.876;2024-01-25T14:18:37;96488.16;;;9.47;100.00
23589;BME280;11972;48.078;11.876;2024-01-25T14:22:40;96491.47;;;9.31;100.00
23589;BME280;11972;48.078;11.876;2024-01-25T14:26:40;96496.13;;;9.19;100.00
23589;BME280;11972;48.078;11.876;2024-01-25T14:30:40;96498.22;;;9.15;100.00
23589;BME280;11972;48.078;11.876;2024-01-25T14:34:43;96487.69;;;9.15;100.00
23589;BME280;11972;48.078;11.876;2024-01-25T14:38:43;96493.13;;;9.14;100.00
23589;BME280;11972;48.078;11.876;2024-01-25T14:42:44;96498.38;;;9.14;100.00
23589;BME280;11972;48.078;11.876;2024-01-25T14:46:44;96493.78;;;9.16;100.00
23589;BME280;11972;48.078;11.876;2024-01-25T14:50:44;96490.69;;;9.20;100.00
23589;BME280;11972;48.078;11.876;2024-01-25T14:54:45;96496.13;;;9.19;100.00
23589;BME280;11972;48.078;11.876;2024-01-25T14:58:45;96497.84;;;9.10;100.00
23589;BME280;11972;48.078;11.876;2024-01-25T15:02:46;96488.34;;;9.00;100.00
23589;BME280;11972;48.078;11.876;2024-01-25T15:06:47;96484.63;;;8.92;100.00
23589;BME280;11972;48.078;11.876;2024-01-25T15:10:47;96486.91;;;8.87;100.00
23589;BME280;11972;48.078;11.876;2024-01-25T15:14:48;96490.03;;;8.73;100.00
23589;BME280;11972;48.078;11.876;2024-01-25T15:18:48;96479.84;;;8.60;100.00
23589;BME280;11972;48.078;11.876;2024-01-25T15:22:52;96480.88;;;8.50;100.00
23589;BME280;11972;48.078;11.876;2024-01-25T15:26:52;96484.66;;;8.37;100.00
23589;BME280;11972;48.078;11.876;2024-01-25T15:30:52;96488.13;;;8.28;100.00
23589;BME280;11972;48.078;11.876;2024-01-25T15:34:53;96489.94;;;8.18;100.00
23589;BME280;11972;48.078;11.876;2024-01-25T15:38:53;96496.34;;;8.06;100.00
23589;BME280;11972;48.078;11.876;2024-01-25T15:42:53;96494.47;;;7.88;100.00
23589;BME280;11972;48.078;11.876;2024-01-25T15:46:56;96499.75;;;7.69;100.00
23589;BME280;11972;48.078;11.876;2024-01-25T15:50:56;96484.97;;;7.49;100.00
23589;BME280;11972;48.078;11.876;2024-01-25T15:54:56;96494.53;;;7.30;100.00
23589;BME280;11972;48.078;11.876;2024-01-25T15:58:57;96491.47;;;7.15;100.00
23589;BME280;11972;48.078;11.876;2024-01-25T16:02:57;96498.25;;;7.08;100.00
23589;BME280;11972;48.078;11.876;2024-01-25T16:06:57;96505.56;;;7.05;100.00
23589;BME280;11972;48.078;11.876;2024-01-25T16:10:58;96501.56;;;7.01;100.00
23589;BME280;11972;48.078;11.876;2024-01-25T16:14:58;96496.44;;;6.99;100.00
23589;BME280;11972;48.078;11.876;2024-01-25T16:19:00;96495.91;;;6.95;100.00
23589;BME280;11972;48.078;11.876;2024-01-25T16:23:00;96501.53;;;6.91;100.00
23589;BME280;11972;48.078;11.876;2024-01-25T16:27:00;96509.97;;;6.85;100.00
23589;BME280;11972;48.078;11.876;2024-01-25T16:31:01;96508.88;;;6.87;100.00
23589;BME280;11972;48.078;11.876;2024-01-25T16:35:02;96519.66;;;6.94;100.00
23589;BME280;11972;48.078;11.876;2024-01-25T16:39:02;96520.78;;;7.01;100.00
23589;BME280;11972;48.078;11.876;2024-01-25T16:43:03;96527.94;;;6.89;100.00
23589;BME280;11972;48.078;11.876;2024-01-25T16:47:03;96530.66;;;6.78;100.00
23589;BME280;11972;48.078;11.876;2024-01-25T16:51:03;96517.13;;;6.73;100.00
23589;BME280;11972;48.078;11.876;2024-01-25T16:55:04;96528.16;;;6.67;100.00
23589;BME280;11972;48.078;11.876;2024-01-25T16:59:04;96532.84;;;6.63;100.00
23589;BME280;11972;48.078;11.876;2024-01-25T17:03:05;96543.47;;;6.62;100.00
23589;BME280;11972;48.078;11.876;2024-01-25T17:07:05;96539.44;;;6.58;100.00
23589;BME280;11972;48.078;11.876;2024-01-25T17:11:05;96541.97;;;6.59;100.00
23589;BME280;11972;48.078;11.876;2024-01-25T17:15:06;96539.34;;;6.69;100.00
23589;BME280;11972;48.078;11.876;2024-01-25T17:19:07;96537.81;;;6.66;100.00
23589;BME280;11972;48.078;11.876;2024-01-25T17:23:07;96540.00;;;6.52;100.00
23589;BME280;11972;48.078;11.876;2024-01-25T17:27:08;96538.16;;;6.42;100.00
23589;BME280;11972;48.078;11.876;2024-01-25T17:31:08;96550.13;;;6.35;100.00
23589;BME280;11972;48.078;11.876;2024-01-25T17:35:08;96552.63;;;6.37;100.00
23589;BME280;11972;48.078;11.876;2024-01-25T17:39:09;96551.28;;;6.42;100.00
23589;BME280;11972;48.078;11.876;2024-01-25T17:43:10;96543.09;;;6.36;100.00
23589;BME280;11972;48.078;11.876;2024-01-25T17:47:11;96551.38;;;6.31;100.00
23589;BME280;11972;48.078;11.876;2024-01-25T17:51:11;96557.56;;;6.30;100.00
23589;BME280;11972;48.078;11.876;2024-01-25T17:55:13;96549.81;;;6.29;100.00
23589;BME280;11972;48.078;11.876;2024-01-25T17:59:13;96560.53;;;6.16;100.00
23589;BME280;11972;48.078;11.876;2024-01-25T18:03:13;96563.03;;;5.96;100.00
23589;BME280;11972;48.078;11.876;2024-01-25T18:07:14;96561.63;;;5.92;100.00
23589;BME280;11972;48.078;11.876;2024-01-25T18:11:14;96563.75;;;5.99;100.00
23589;BME280;11972;48.078;11.876;2024-01-25T18:15:15;96568.34;;;6.06;100.00
23589;BME280;11972;48.078;11.876;2024-01-25T18:19:18;96561.25;;;6.18;100.00
23589;BME280;11972;48.078;11.876;2024-01-25T18:23:18;96561.13;;;6.29;100.00
23589;BME280;11972;48.078;11.876;2024-01-25T18:27:18;96567.53;;;6.36;100.00
23589;BME280;11972;48.078;11.876;2024-01-25T18:31:19;96572.28;;;6.42;100.00
23589;BME280;11972;48.078;11.876;2024-01-25T18:35:20;96566.50;;;6.49;100.00
23589;BME280;11972;48.078;11.876;2024-01-25T18:39:20;96567.31;;;6.49;100.00
23589;BME280;11972;48.078;11.876;2024-01-25T18:43:21;96574.13;;;6.52;100.00
23589;BME280;11972;48.078;11.876;2024-01-25T18:47:23;96569.53;;;6.54;100.00
23589;BME280;11972;48.078;11.876;2024-01-25T18:51:25;96563.34;;;6.55;100.00
23589;BME280;11972;48.078;11.876;2024-01-25T18:55:26;96558.94;;;6.55;100.00
23589;BME280;11972;48.078;11.876;2024-01-25T18:59:27;96562.25;;;6.57;100.00
23589;BME280;11972;48.078;11.876;2024-01-25T19:03:27;96560.44;;;6.58;100.00
23589;BME280;11972;48.078;11.876;2024-01-25T19:07:28;96553.41;;;6.58;100.00
23589;BME280;11972;48.078;11.876;2024-01-25T19:11:29;96548.03;;;6.60;100.00
23589;BME280;11972;48.078;11.876;2024-01-25T19:15:29;96541.25;;;6.57;100.00
23589;BME280;11972;48.078;11.876;2024-01-25T19:19:29;96544.69;;;6.58;100.00
23589;BME280;11972;48.078;11.876;2024-01-25T19:23:32;96546.63;;;6.56;100.00
23589;BME280;11972;48.078;11.876;2024-01-25T19:27:32;96553.13;;;6.61;100.00
23589;BME280;11972;48.078;11.876;2024-01-25T19:31:33;96551.97;;;6.75;100.00
23589;BME280;11972;48.078;11.876;2024-01-25T19:35:33;96559.72;;;6.86;100.00
23589;BME280;11972;48.078;11.876;2024-01-25T19:39:33;96549.66;;;6.91;100.00
23589;BME280;11972;48.078;11.876;2024-01-25T19:43:34;96544.25;;;6.93;100.00
23589;BME280;11972;48.078;11.876;2024-01-25T19:47:35;96546.06;;;6.92;100.00
23589;BME280;11972;48.078;11.876;2024-01-25T19:51:35;96539.28;;;6.90;100.00
23589;BME280;11972;48.078;11.876;2024-01-25T19:55:35;96535.81;;;6.89;100.00
23589;BME280;11972;48.078;11.876;2024-01-25T19:59:37;96540.09;;;6.90;100.00
23589;BME280;11972;48.078;11.876;2024-01-25T20:03:39;96541.78;;;6.91;100.00
23589;BME280;11972;48.078;11.876;2024-01-25T20:07:39;96541.50;;;6.94;100.00
23589;BME280;11972;48.078;11.876;2024-01-25T20:11:39;96544.25;;;6.93;100.00
23589;BME280;11972;48.078;11.876;2024-01-25T20:15:40;96535.28;;;6.95;100.00
23589;BME280;11972;48.078;11.876;2024-01-25T20:19:40;96546.19;;;6.91;100.00
23589;BME280;11972;48.078;11.876;2024-01-25T20:23:41;96536.25;;;6.94;100.00
23589;BME280;11972;48.078;11.876;2024-01-25T20:27:41;96530.56;;;6.99;100.00
23589;BME280;11972;48.078;11.876;2024-01-25T20:31:41;96539.84;;;7.03;100.00
23589;BME280;11972;48.078;11.876;2024-01-25T20:35:42;96549.25;;;7.06;100.00
23589;BME280;11972;48.078;11.876;2024-01-25T20:39:42;96542.78;;;7.10;100.00
23589;BME280;11972;48.078;11.876;2024-01-25T20:43:42;96548.59;;;7.13;100.00
23589;BME280;11972;48.078;11.876;2024-01-25T20:47:44;96548.75;;;7.12;100.00
23589;BME280;11972;48.078;11.876;2024-01-25T20:51:44;96551.75;;;6.97;100.00
23589;BME280;11972;48.078;11.876;2024-01-25T20:55:45;96546.31;;;6.89;100.00
23589;BME280;11972;48.078;11.876;2024-01-25T20:59:45;96549.53;;;6.93;100.00